Time;durP1;ratioP1;P1;durP2;ratioP2;P2;SDS_P1;SDS_P2;PMS_P1;PMS_P2;Temp;Humidity;BMP_temperature;BMP_pressure;BME280_temperature;BME280_humidity;BME280_pressure;Samples;Min_cycle;Max_cycle;Signal;HPM_P1;HPM_P2
2023/11/09 00:00:59;;;;;;;11.80;5.57;;;11.00;99.90;;;;;;5037883;28;20040;-82
2023/11/09 00:03:26;;;;;;;11.25;6.18;;;10.90;99.90;;;;;;5056054;28;20033;-83
2023/11/09 00:05:52;;;;;;;10.85;6.72;;;11.00;99.90;;;;;;5055581;28;20473;-83
2023/11/09 00:08:18;;;;;;;13.05;6.60;;;11.00;99.90;;;;;;5055811;28;20056;-82
2023/11/09 00:10:44;;;;;;;14.65;6.90;;;11.00;99.90;;;;;;5055857;28;20061;-82
2023/11/09 00:13:10;;;;;;;12.88;6.70;;;11.00;99.90;;;;;;5055318;28;20497;-82
2023/11/09 00:15:38;;;;;;;10.85;6.43;;;10.90;99.90;;;;;;5055573;28;20095;-82
2023/11/09 00:18:05;;;;;;;15.43;7.43;;;10.90;99.90;;;;;;5055298;28;20033;-82
2023/11/09 00:20:30;;;;;;;13.70;7.95;;;10.90;99.90;;;;;;5037268;28;20445;-82
2023/11/09 00:22:56;;;;;;;11.23;7.30;;;10.90;99.90;;;;;;5055174;28;20116;-82
2023/11/09 00:25:22;;;;;;;15.23;7.85;;;10.90;99.90;;;;;;5055123;28;20040;-82
2023/11/09 00:27:48;;;;;;;12.80;8.20;;;10.90;99.90;;;;;;5054808;28;20045;-82
2023/11/09 00:30:14;;;;;;;13.65;8.93;;;10.90;99.90;;;;;;5037005;28;20041;-83
2023/11/09 00:32:40;;;;;;;12.57;8.98;;;10.90;99.90;;;;;;5054978;28;20036;-82
2023/11/09 00:35:07;;;;;;;23.02;9.10;;;10.80;99.90;;;;;;5054846;28;20037;-82
2023/11/09 00:37:33;;;;;;;15.98;7.88;;;10.80;99.90;;;;;;5055149;28;20040;-83
2023/11/09 00:39:59;;;;;;;10.43;7.45;;;10.80;99.90;;;;;;5046765;28;20038;-83
2023/11/09 00:42:25;;;;;;;12.57;7.65;;;10.70;99.90;;;;;;5034964;28;20160;-82
2023/11/09 00:44:51;;;;;;;13.82;8.55;;;10.70;99.90;;;;;;5034740;28;20044;-82
2023/11/09 00:47:16;;;;;;;10.93;7.90;;;10.70;99.90;;;;;;5034357;28;20037;-82
2023/11/09 00:49:42;;;;;;;15.60;7.30;;;10.70;99.90;;;;;;5034571;28;20033;-81
2023/11/09 00:52:08;;;;;;;15.40;8.13;;;10.60;99.90;;;;;;5034219;28;20029;-82
2023/11/09 00:54:35;;;;;;;15.57;8.05;;;10.60;99.90;;;;;;5034880;28;20044;-82
2023/11/09 00:57:01;;;;;;;11.43;7.45;;;10.60;99.90;;;;;;5034745;28;20030;-83
2023/11/09 00:59:26;;;;;;;12.40;7.50;;;10.60;99.90;;;;;;5034666;28;20033;-84
2023/11/09 01:01:52;;;;;;;9.73;6.60;;;10.60;99.90;;;;;;5036604;28;20056;-82
2023/11/09 01:04:18;;;;;;;12.13;7.22;;;10.60;99.90;;;;;;5017406;28;20033;-82
2023/11/09 01:06:44;;;;;;;10.25;6.93;;;10.60;99.90;;;;;;5034959;28;20474;-82
2023/11/09 01:12:32;;;;;;;13.63;6.50;;;10.50;99.90;;;;;;5034648;28;20513;-82
2023/11/09 01:14:58;;;;;;;11.38;6.55;;;10.50;99.90;;;;;;5034557;28;20029;-82
2023/11/09 01:17:27;;;;;;;11.93;6.00;;;10.50;99.90;;;;;;5034811;28;20037;-80
2023/11/09 01:19:56;;;;;;;9.48;5.70;;;10.50;99.90;;;;;;5034904;28;20370;-82
2023/11/09 01:22:22;;;;;;;9.50;4.82;;;10.50;99.90;;;;;;5034775;28;20041;-82
2023/11/09 01:24:48;;;;;;;7.88;5.07;;;10.50;99.90;;;;;;5034735;28;20042;-82
2023/11/09 01:27:14;;;;;;;14.48;6.10;;;10.50;99.90;;;;;;5034476;28;20041;-82
2023/11/09 01:29:40;;;;;;;10.30;5.40;;;10.50;99.90;;;;;;5034654;28;20046;-82
2023/11/09 01:32:06;;;;;;;12.90;5.88;;;10.50;99.90;;;;;;5034656;28;20056;-82
2023/11/09 01:34:32;;;;;;;10.98;5.97;;;10.50;99.90;;;;;;5034328;28;20041;-81
2023/11/09 01:36:58;;;;;;;10.02;5.72;;;10.40;99.90;;;;;;5034920;28;20033;-82
2023/11/09 01:39:24;;;;;;;9.95;5.07;;;10.40;99.90;;;;;;5034382;28;20460;-82
2023/11/09 01:41:50;;;;;;;9.18;5.25;;;10.50;99.90;;;;;;5034099;28;20056;-82
2023/11/09 01:44:19;;;;;;;8.05;4.63;;;10.50;99.90;;;;;;5034188;28;20049;-82
2023/11/09 01:46:52;;;;;;;10.07;5.80;;;10.40;99.90;;;;;;5033662;28;20038;-82
2023/11/09 01:49:20;;;;;;;9.60;4.95;;;10.50;99.90;;;;;;5034120;28;20041;-82
2023/11/09 01:51:48;;;;;;;8.13;5.00;;;10.50;99.90;;;;;;5033668;28;20127;-82
2023/11/09 01:54:21;;;;;;;9.77;5.32;;;10.50;99.90;;;;;;5033781;28;20029;-82
2023/11/09 01:56:51;;;;;;;8.07;4.60;;;10.50;99.90;;;;;;5034005;28;20500;-80
2023/11/09 01:59:17;;;;;;;9.57;5.43;;;10.40;99.90;;;;;;5031073;28;20091;-81
2023/11/09 02:01:45;;;;;;;8.32;5.40;;;10.40;99.90;;;;;;5030936;28;20564;-82
2023/11/09 02:04:11;;;;;;;10.23;5.97;;;10.40;99.90;;;;;;5013586;28;20438;-82
2023/11/09 02:06:37;;;;;;;11.75;5.65;;;10.40;99.90;;;;;;5033235;28;20067;-81
2023/11/09 02:09:03;;;;;;;8.68;5.72;;;10.40;99.90;;;;;;5033386;28;20107;-82
2023/11/09 02:11:29;;;;;;;8.77;6.05;;;10.30;99.90;;;;;;5033680;28;20038;-81
2023/11/09 02:13:55;;;;;;;13.45;6.47;;;10.30;99.90;;;;;;5032737;28;20049;-82
2023/11/09 02:16:20;;;;;;;11.30;6.95;;;10.30;99.90;;;;;;5033228;28;20033;-82
2023/11/09 02:18:46;;;;;;;13.77;6.38;;;10.30;99.90;;;;;;5033037;28;20544;-82
2023/11/09 02:21:15;;;;;;;11.23;6.35;;;10.20;99.90;;;;;;5032325;28;20513;-82
2023/11/09 02:23:43;;;;;;;12.52;6.85;;;10.20;99.90;;;;;;5015242;28;20041;-79
2023/11/09 02:26:09;;;;;;;10.43;6.82;;;10.20;99.90;;;;;;5032899;28;20041;-82
2023/11/09 02:28:36;;;;;;;10.20;6.25;;;10.20;99.90;;;;;;5033303;28;20044;-77
2023/11/09 02:31:02;;;;;;;10.60;6.18;;;10.20;99.90;;;;;;5015674;28;20505;-82
2023/11/09 02:33:27;;;;;;;11.27;6.40;;;10.20;99.90;;;;;;5032750;28;20029;-82
2023/11/09 02:35:53;;;;;;;11.30;6.15;;;10.20;99.90;;;;;;5032099;28;20038;-81
2023/11/09 02:38:19;;;;;;;10.98;5.43;;;10.20;99.90;;;;;;5014966;28;20076;-82
2023/11/09 02:40:45;;;;;;;11.00;5.95;;;10.20;99.90;;;;;;5032865;28;20038;-81
2023/11/09 02:43:11;;;;;;;9.32;6.03;;;10.10;99.90;;;;;;5032609;28;20040;-82
2023/11/09 02:45:37;;;;;;;10.30;6.20;;;10.10;99.90;;;;;;5032778;28;20035;-82
2023/11/09 02:48:04;;;;;;;9.63;6.45;;;10.10;99.90;;;;;;5034548;28;20103;-82
2023/11/09 02:50:30;;;;;;;8.55;5.82;;;10.00;99.90;;;;;;5033503;28;20113;-82
2023/11/09 02:52:55;;;;;;;9.73;5.95;;;10.00;99.90;;;;;;5033426;28;20120;-81
2023/11/09 02:55:21;;;;;;;13.30;5.85;;;10.00;99.90;;;;;;5033620;28;20041;-82
2023/11/09 02:57:48;;;;;;;14.02;6.53;;;10.00;99.90;;;;;;5033582;28;20117;-81
2023/11/09 03:00:14;;;;;;;14.85;6.68;;;9.90;99.90;;;;;;5037658;28;20044;-82
2023/11/09 03:02:41;;;;;;;10.18;5.85;;;9.90;99.90;;;;;;5037540;28;20116;-82
2023/11/09 03:05:07;;;;;;;10.18;6.05;;;9.90;99.90;;;;;;5037057;28;20110;-81
2023/11/09 03:07:36;;;;;;;10.40;5.80;;;9.90;99.90;;;;;;5037276;28;20465;-82
2023/11/09 03:10:03;;;;;;;11.70;6.55;;;9.90;99.90;;;;;;5037086;28;20383;-82
2023/11/09 03:12:29;;;;;;;13.55;5.95;;;9.90;99.90;;;;;;5037163;28;20045;-82
2023/11/09 03:14:55;;;;;;;10.13;5.97;;;9.90;99.90;;;;;;5036934;28;20029;-82
2023/11/09 03:17:22;;;;;;;9.13;5.60;;;9.90;99.90;;;;;;5037345;28;20505;-81
2023/11/09 03:19:48;;;;;;;12.35;6.38;;;9.90;99.90;;;;;;5036938;28;20033;-80
2023/11/09 03:22:16;;;;;;;16.13;6.07;;;9.90;99.90;;;;;;5037063;28;20389;-79
2023/11/09 03:24:45;;;;;;;14.35;6.55;;;9.80;99.90;;;;;;5036823;28;20048;-81
2023/11/09 03:27:11;;;;;;;9.02;5.25;;;9.80;99.90;;;;;;5018668;28;20033;-82
2023/11/09 03:29:37;;;;;;;8.88;5.97;;;9.80;99.90;;;;;;5036404;28;20049;-82
2023/11/09 03:32:05;;;;;;;9.93;6.03;;;9.80;99.90;;;;;;5036416;28;20456;-80
2023/11/09 03:34:31;;;;;;;10.13;6.10;;;9.70;99.90;;;;;;5036535;28;20045;-81
2023/11/09 03:36:57;;;;;;;11.90;5.90;;;9.70;99.90;;;;;;5036448;28;20478;-80
2023/11/09 03:39:24;;;;;;;10.05;5.97;;;9.70;99.90;;;;;;5036475;28;20064;-75
2023/11/09 03:41:52;;;;;;;9.63;5.97;;;9.70;99.90;;;;;;5036870;28;20124;-82
2023/11/09 03:44:18;;;;;;;9.70;5.78;;;9.70;99.90;;;;;;5036547;28;20095;-81
2023/11/09 03:46:44;;;;;;;12.85;5.22;;;9.70;99.90;;;;;;5036392;28;20034;-81
2023/11/09 03:49:12;;;;;;;8.43;5.10;;;9.70;99.90;;;;;;5035874;28;20045;-82
2023/11/09 03:51:38;;;;;;;9.02;5.45;;;9.70;99.90;;;;;;5036024;28;20039;-83
2023/11/09 03:54:04;;;;;;;7.27;5.03;;;9.70;99.90;;;;;;5035744;28;20037;-83
2023/11/09 03:56:30;;;;;;;7.75;5.50;;;9.70;99.90;;;;;;5018514;28;20393;-82
2023/11/09 03:58:56;;;;;;;7.57;5.15;;;9.60;99.90;;;;;;5036130;28;20037;-80
2023/11/09 04:01:22;;;;;;;13.35;5.53;;;9.60;99.90;;;;;;5035524;28;20072;-82
2023/11/09 04:03:48;;;;;;;10.63;5.32;;;9.60;99.90;;;;;;5035631;28;20099;-82
2023/11/09 04:06:16;;;;;;;13.00;6.30;;;9.60;99.90;;;;;;5035948;28;20033;-82
2023/11/09 04:08:42;;;;;;;13.68;5.35;;;9.60;99.90;;;;;;5035488;28;20085;-82
2023/11/09 04:11:08;;;;;;;9.57;5.40;;;9.60;99.90;;;;;;5035282;28;20037;-82
2023/11/09 04:13:34;;;;;;;11.82;5.32;;;9.60;99.90;;;;;;5035363;28;20103;-81
2023/11/09 04:16:00;;;;;;;12.77;5.20;;;9.60;99.90;;;;;;5035572;28;20036;-82
2023/11/09 04:18:25;;;;;;;8.88;4.82;;;9.60;99.90;;;;;;5035234;28;20029;-76
2023/11/09 04:20:51;;;;;;;10.38;4.70;;;9.50;99.90;;;;;;5035408;28;20057;-77
2023/11/09 04:23:17;;;;;;;6.72;4.35;;;9.50;99.90;;;;;;5035084;28;20056;-81
2023/11/09 04:25:43;;;;;;;8.00;4.40;;;9.50;99.90;;;;;;5035104;28;20080;-82
2023/11/09 04:28:09;;;;;;;8.48;4.50;;;9.50;99.90;;;;;;5035155;28;20033;-82
2023/11/09 04:30:36;;;;;;;7.70;4.60;;;9.50;99.90;;;;;;5034983;28;20038;-79
2023/11/09 04:33:09;;;;;;;11.60;4.93;;;9.40;99.90;;;;;;5035374;28;20091;-78
2023/11/09 04:35:35;;;;;;;8.73;4.60;;;9.40;99.90;;;;;;5036056;28;20060;-78
2023/11/09 04:38:02;;;;;;;11.98;5.40;;;9.40;99.90;;;;;;5035512;28;20038;-73
2023/11/09 04:40:29;;;;;;;7.65;4.85;;;9.40;99.90;;;;;;5035883;28;20432;-75
2023/11/09 04:42:56;;;;;;;11.30;4.87;;;9.40;99.90;;;;;;5035595;28;20038;-75
2023/11/09 04:45:26;;;;;;;16.90;4.72;;;9.40;99.90;;;;;;5035549;28;20397;-76
2023/11/09 04:47:58;;;;;;;11.50;5.37;;;9.40;99.90;;;;;;5035566;28;20033;-81
2023/11/09 04:50:44;;;;;;;8.07;4.43;;;9.40;99.90;;;;;;5037502;28;20033;-79
2023/11/09 04:53:39;;;;;;;9.90;4.82;;;9.40;99.90;;;;;;5037059;28;20108;-74
2023/11/09 04:56:09;;;;;;;16.43;4.97;;;9.40;99.90;;;;;;5035408;28;20029;-81
2023/11/09 04:58:47;;;;;;;13.65;4.80;;;9.40;99.90;;;;;;5035257;28;20042;-78
2023/11/09 05:07:06;;;;;;;10.10;5.33;;;9.30;99.90;;;;;;4974014;28;20038;-79
2023/11/09 05:09:35;;;;;;;11.90;5.00;;;9.30;99.90;;;;;;5010835;28;20505;-78
2023/11/09 05:12:09;;;;;;;9.20;4.77;;;9.20;99.90;;;;;;5035712;28;20038;-76
2023/11/09 05:14:35;;;;;;;6.40;4.70;;;9.20;99.90;;;;;;5034676;28;20406;-79
2023/11/09 05:17:01;;;;;;;8.07;4.27;;;9.20;99.90;;;;;;5035790;28;20041;-81
2023/11/09 05:19:27;;;;;;;6.05;4.30;;;9.20;99.90;;;;;;5036583;28;20110;-82
2023/11/09 05:21:53;;;;;;;5.15;3.88;;;9.20;99.90;;;;;;5034357;28;20048;-82
2023/11/09 05:24:19;;;;;;;7.33;3.97;;;9.20;99.90;;;;;;5034776;28;20490;-82
2023/11/09 05:26:48;;;;;;;4.40;3.65;;;9.10;99.90;;;;;;5034399;28;20116;-82
2023/11/09 05:29:15;;;;;;;7.70;3.67;;;9.10;99.90;;;;;;5016442;28;20067;-81
2023/11/09 05:31:42;;;;;;;4.33;3.73;;;9.10;99.90;;;;;;5033788;28;20034;-82
2023/11/09 05:34:08;;;;;;;6.93;4.07;;;9.00;99.90;;;;;;5034414;28;20033;-82
2023/11/09 05:36:34;;;;;;;6.80;4.00;;;9.00;99.90;;;;;;5034022;28;20502;-81
2023/11/09 05:39:01;;;;;;;7.23;4.43;;;9.00;99.90;;;;;;5034066;28;20037;-82
2023/11/09 05:41:29;;;;;;;7.60;4.37;;;9.00;99.90;;;;;;5033985;28;20385;-82
2023/11/09 05:43:55;;;;;;;7.83;4.60;;;8.90;99.90;;;;;;5034079;28;20160;-82
2023/11/09 05:46:21;;;;;;;9.60;4.63;;;8.90;99.90;;;;;;5034092;28;20400;-82
2023/11/09 05:48:48;;;;;;;7.77;4.93;;;8.90;99.90;;;;;;5033940;28;20120;-82
2023/11/09 05:51:20;;;;;;;8.60;4.93;;;8.90;99.90;;;;;;5033956;28;20026;-80
2023/11/09 05:53:48;;;;;;;7.22;4.40;;;8.90;99.90;;;;;;5034032;28;20052;-82
2023/11/09 05:56:16;;;;;;;7.63;4.50;;;8.90;99.90;;;;;;5034036;28;20401;-82
2023/11/09 05:58:47;;;;;;;10.10;5.00;;;8.80;99.90;;;;;;5033915;28;20073;-82
2023/11/09 06:01:13;;;;;;;6.97;4.47;;;8.90;99.90;;;;;;5033585;28;20049;-83
2023/11/09 06:03:39;;;;;;;7.47;4.43;;;8.90;99.90;;;;;;5035757;28;20065;-82
2023/11/09 06:06:06;;;;;;;6.97;4.53;;;8.90;99.90;;;;;;5033777;28;20486;-82
2023/11/09 06:08:34;;;;;;;7.70;4.80;;;8.80;99.90;;;;;;5033563;28;20091;-81
2023/11/09 06:11:01;;;;;;;12.93;4.47;;;8.80;99.90;;;;;;5033574;28;20060;-82
2023/11/09 06:13:27;;;;;;;11.53;5.27;;;8.90;99.90;;;;;;5033164;28;20052;-82
2023/11/09 06:15:53;;;;;;;15.33;4.67;;;8.90;99.90;;;;;;5033166;28;20034;-81
2023/11/09 06:18:19;;;;;;;8.43;4.50;;;8.80;99.90;;;;;;5032968;28;20037;-81
2023/11/09 06:20:48;;;;;;;11.17;4.83;;;8.80;99.90;;;;;;5033942;28;20037;-75
2023/11/09 06:23:15;;;;;;;6.97;4.20;;;8.80;99.90;;;;;;5016592;28;20033;-79
2023/11/09 06:25:44;;;;;;;6.23;4.67;;;8.80;99.90;;;;;;5034358;28;20100;-78
2023/11/09 06:28:10;;;;;;;8.97;6.17;;;8.90;99.90;;;;;;5016063;28;20041;-74
2023/11/09 06:30:45;;;;;;;11.87;5.23;;;8.80;99.90;;;;;;5033990;28;20393;-75
2023/11/09 06:33:11;;;;;;;6.43;5.20;;;8.90;99.90;;;;;;5033369;28;20032;-72
2023/11/09 06:35:40;;;;;;;11.77;4.83;;;8.80;99.90;;;;;;5033640;28;20124;-76
2023/11/09 06:38:08;;;;;;;12.13;4.93;;;8.80;99.90;;;;;;5033769;28;20040;-79
2023/11/09 06:40:37;;;;;;;10.43;4.87;;;8.90;99.90;;;;;;5033684;28;20053;-81
2023/11/09 06:43:03;;;;;;;9.37;5.20;;;8.90;99.90;;;;;;5033326;28;20049;-79
2023/11/09 06:45:31;;;;;;;9.57;5.50;;;8.90;99.90;;;;;;5033445;28;20033;-75
2023/11/09 06:47:57;;;;;;;12.03;5.50;;;8.90;99.90;;;;;;5033449;28;20033;-77
2023/11/09 06:50:23;;;;;;;12.77;5.00;;;9.00;99.90;;;;;;5033251;28;20030;-80
2023/11/09 06:52:52;;;;;;;9.10;5.33;;;9.00;99.90;;;;;;5042917;28;20068;-72
2023/11/09 06:55:18;;;;;;;9.90;5.77;;;9.00;99.90;;;;;;5032483;28;20037;-79
2023/11/09 06:57:45;;;;;;;11.53;5.50;;;9.00;99.90;;;;;;5033346;28;20030;-78
2023/11/09 07:00:13;;;;;;;8.27;4.83;;;9.00;99.90;;;;;;5032794;28;20041;-77
2023/11/09 07:02:40;;;;;;;13.00;5.97;;;9.10;99.90;;;;;;5034572;28;20029;-73
2023/11/09 07:05:10;;;;;;;10.83;5.40;;;9.20;99.90;;;;;;5033429;28;20060;-75
2023/11/09 07:07:38;;;;;;;18.33;5.80;;;9.20;99.90;;;;;;5033379;28;20441;-75
2023/11/09 07:10:07;;;;;;;17.33;6.97;;;9.20;99.90;;;;;;5033021;28;20084;-75
2023/11/09 07:12:34;;;;;;;19.00;10.10;;;9.20;99.90;;;;;;5032467;28;20107;-80
2023/11/09 07:15:00;;;;;;;15.93;6.80;;;9.30;99.90;;;;;;5032945;28;20037;-75
2023/11/09 07:17:26;;;;;;;11.93;6.10;;;9.40;99.90;;;;;;5032421;28;20445;-78
2023/11/09 07:19:52;;;;;;;19.47;6.30;;;9.40;99.90;;;;;;5032598;28;20500;-73
2023/11/09 07:22:22;;;;;;;12.85;6.95;;;9.50;99.90;;;;;;5032515;28;20470;-75
2023/11/09 07:24:56;;;;;;;20.45;7.03;;;9.50;99.90;;;;;;5032654;28;20413;-72
2023/11/09 07:27:23;;;;;;;19.33;7.43;;;9.60;99.90;;;;;;5032498;28;20038;-76
2023/11/09 07:29:50;;;;;;;18.05;7.63;;;9.60;99.90;;;;;;5033196;28;20541;-75
2023/11/09 07:32:16;;;;;;;13.52;7.20;;;9.70;99.90;;;;;;5035458;28;20040;-76
2023/11/09 07:34:42;;;;;;;15.95;7.90;;;9.70;99.90;;;;;;5034670;28;20029;-75
2023/11/09 07:37:11;;;;;;;19.02;8.65;;;9.70;99.90;;;;;;5033276;28;20500;-78
2023/11/09 07:39:37;;;;;;;12.90;7.10;;;9.80;99.90;;;;;;5035352;28;20175;-74
2023/11/09 07:42:06;;;;;;;14.07;6.60;;;9.90;99.90;;;;;;5034094;28;20025;-73
2023/11/09 07:44:32;;;;;;;18.33;7.47;;;9.90;99.90;;;;;;5034634;28;20350;-78
2023/11/09 07:46:58;;;;;;;13.63;6.93;;;9.90;99.90;;;;;;5040466;28;20029;-73
2023/11/09 07:49:24;;;;;;;19.27;7.87;;;9.90;99.90;;;;;;5041740;28;20040;-74
2023/11/09 07:51:52;;;;;;;17.85;7.30;;;10.00;99.90;;;;;;5041961;28;20037;-76
2023/11/09 07:54:21;;;;;;;26.27;8.05;;;10.00;99.90;;;;;;5022046;28;20406;-78
2023/11/09 07:56:47;;;;;;;21.73;8.27;;;10.10;99.90;;;;;;5040359;28;20044;-72
2023/11/09 07:59:13;;;;;;;24.75;8.10;;;10.10;99.90;;;;;;5035730;28;20092;-72
2023/11/09 08:01:40;;;;;;;15.80;7.80;;;10.10;99.90;;;;;;5036249;28;20029;-72
2023/11/09 08:04:08;;;;;;;18.83;7.97;;;10.20;99.90;;;;;;5036317;28;20419;-73
2023/11/09 08:06:34;;;;;;;27.00;7.93;;;10.20;99.90;;;;;;5038584;28;20032;-76
2023/11/09 08:09:02;;;;;;;15.93;8.27;;;10.30;99.90;;;;;;5037619;28;20042;-73
2023/11/09 08:11:28;;;;;;;28.45;8.95;;;10.30;99.90;;;;;;5036181;28;20485;-72
2023/11/09 08:13:54;;;;;;;19.38;8.80;;;10.30;99.90;;;;;;5035699;28;20050;-76
2023/11/09 08:16:21;;;;;;;21.13;8.70;;;10.30;99.90;;;;;;5035476;28;20060;-73
2023/11/09 08:18:47;;;;;;;13.52;8.25;;;10.40;99.90;;;;;;5035494;28;20576;-72
2023/11/09 08:21:20;;;;;;;16.58;8.30;;;10.50;99.90;;;;;;5035774;28;20038;-73
2023/11/09 08:23:46;;;;;;;17.60;8.15;;;10.50;99.90;;;;;;5034252;28;20448;-72
2023/11/09 08:26:12;;;;;;;19.55;9.15;;;10.60;99.90;;;;;;5035167;28;20029;-75
2023/11/09 08:28:38;;;;;;;29.05;10.98;;;10.60;99.90;;;;;;5033234;28;20041;-72
2023/11/09 08:31:08;;;;;;;26.15;8.65;;;10.70;99.90;;;;;;5033518;28;20030;-73
2023/11/09 08:33:35;;;;;;;23.38;10.93;;;10.70;99.90;;;;;;5034057;28;20025;-74
2023/11/09 08:36:04;;;;;;;16.88;10.65;;;10.80;99.90;;;;;;5034422;28;20029;-72
2023/11/09 08:38:33;;;;;;;21.42;10.68;;;10.80;99.90;;;;;;5033978;28;20029;-73
2023/11/09 08:41:10;;;;;;;21.15;10.43;;;10.90;99.90;;;;;;5031668;28;20025;-73
2023/11/09 08:43:36;;;;;;;18.00;10.10;;;10.90;99.90;;;;;;5034321;28;20116;-75
2023/11/09 08:46:06;;;;;;;17.55;9.50;;;11.00;99.90;;;;;;5033998;28;20106;-81
2023/11/09 08:48:32;;;;;;;15.73;10.10;;;11.00;99.90;;;;;;5032353;28;20160;-82
2023/11/09 08:51:01;;;;;;;18.15;10.40;;;11.00;99.90;;;;;;5043253;28;20028;-77
2023/11/09 08:53:31;;;;;;;26.40;9.50;;;11.00;99.90;;;;;;5052870;28;20033;-77
2023/11/09 08:56:01;;;;;;;15.07;8.57;;;11.10;99.90;;;;;;5036757;28;20500;-73
2023/11/09 08:58:29;;;;;;;19.55;9.25;;;11.10;99.90;;;;;;5032545;28;20033;-72
2023/11/09 09:01:01;;;;;;;17.33;8.48;;;11.10;99.90;;;;;;5033255;28;20041;-77
2023/11/09 09:03:27;;;;;;;13.93;8.55;;;11.10;99.90;;;;;;5034351;28;20451;-72
2023/11/09 09:05:55;;;;;;;13.55;8.63;;;11.10;99.90;;;;;;5034628;28;20451;-71
2023/11/09 09:08:26;;;;;;;17.98;9.93;;;11.20;99.90;;;;;;5054301;28;21095;-71
2023/11/09 09:10:56;;;;;;;14.40;8.95;;;11.20;99.90;;;;;;5053921;28;20035;-71
2023/11/09 09:13:26;;;;;;;17.25;10.57;;;11.30;99.90;;;;;;5053692;28;20553;-71
2023/11/09 09:15:56;;;;;;;20.27;10.60;;;11.30;99.90;;;;;;5053511;28;20033;-71
2023/11/09 09:18:23;;;;;;;19.48;11.70;;;11.30;99.90;;;;;;5053694;28;20090;-71
2023/11/09 09:20:50;;;;;;;30.25;13.48;;;11.40;99.90;;;;;;5053544;28;20032;-72
2023/11/09 09:23:19;;;;;;;19.88;11.85;;;11.40;99.90;;;;;;5019233;28;20400;-71
2023/11/09 09:25:44;;;;;;;21.98;12.93;;;11.40;99.90;;;;;;5053637;28;20482;-72
2023/11/09 09:28:10;;;;;;;17.50;11.90;;;11.40;99.90;;;;;;5053542;28;20052;-71
2023/11/09 09:30:37;;;;;;;19.80;12.73;;;11.40;99.90;;;;;;5053171;28;20090;-71
2023/11/09 09:33:03;;;;;;;20.55;12.68;;;11.40;99.90;;;;;;5054138;28;20400;-72
2023/11/09 09:35:30;;;;;;;22.60;11.77;;;11.50;99.90;;;;;;5053682;28;20060;-71
2023/11/09 09:37:59;;;;;;;22.40;12.23;;;11.60;99.90;;;;;;5053555;28;20374;-71
2023/11/09 09:40:29;;;;;;;23.02;13.32;;;11.50;99.90;;;;;;5035913;28;20539;-71
2023/11/09 09:42:56;;;;;;;24.83;12.00;;;11.60;99.90;;;;;;5053260;28;20025;-71
2023/11/09 09:45:27;;;;;;;19.85;10.32;;;11.60;99.90;;;;;;5054129;28;20539;-72
2023/11/09 09:47:54;;;;;;;19.67;10.18;;;11.70;99.90;;;;;;5054297;28;20037;-71
2023/11/09 09:50:23;;;;;;;21.58;10.40;;;11.80;99.90;;;;;;5054327;28;20537;-71
2023/11/09 09:52:52;;;;;;;17.60;9.18;;;11.80;99.90;;;;;;5054119;28;20040;-76
2023/11/09 09:55:24;;;;;;;17.80;9.38;;;11.80;99.90;;;;;;5053919;28;20036;-73
2023/11/09 09:58:05;;;;;;;16.92;8.95;;;11.90;99.90;;;;;;5054009;28;20036;-79
2023/11/09 10:00:37;;;;;;;17.15;9.07;;;11.90;99.90;;;;;;5053881;28;20493;-80
2023/11/09 10:03:06;;;;;;;19.17;9.63;;;12.00;99.90;;;;;;5053804;28;20082;-78
2023/11/09 10:05:37;;;;;;;20.25;8.93;;;12.00;99.90;;;;;;5053719;28;20362;-75
2023/11/09 10:08:08;;;;;;;18.25;9.20;;;12.00;99.90;;;;;;5053097;28;20036;-70
2023/11/09 10:10:47;;;;;;;34.80;10.82;;;12.10;99.90;;;;;;5053584;28;20166;-70
2023/11/09 10:13:14;;;;;;;73.97;25.50;;;12.20;99.90;;;;;;5054450;22;20065;-71
2023/11/09 10:15:41;;;;;;;20.10;11.70;;;12.20;99.90;;;;;;5051763;28;20114;-71
2023/11/09 10:18:12;;;;;;;18.00;10.55;;;12.20;99.90;;;;;;5051281;28;20040;-71
2023/11/09 10:20:40;;;;;;;26.83;11.80;;;12.30;99.90;;;;;;5033327;28;20033;-71
2023/11/09 10:23:11;;;;;;;16.83;10.82;;;12.30;99.90;;;;;;5051061;28;20028;-71
2023/11/09 10:25:41;;;;;;;19.02;10.00;;;12.30;99.90;;;;;;5051299;28;20140;-71
2023/11/09 10:28:11;;;;;;;17.90;12.25;;;12.40;99.90;;;;;;5051152;28;20040;-71
2023/11/09 10:30:40;;;;;;;21.55;13.82;;;12.40;99.90;;;;;;5052215;28;20542;-72
2023/11/09 10:33:11;;;;;;;25.30;13.40;;;12.50;99.90;;;;;;5035284;28;20446;-71
2023/11/09 10:35:38;;;;;;;22.67;13.70;;;12.60;99.90;;;;;;5053270;28;20412;-71
2023/11/09 10:38:12;;;;;;;18.30;14.02;;;12.60;99.90;;;;;;5053089;28;20100;-71
2023/11/09 10:40:41;;;;;;;22.77;14.13;;;12.70;99.90;;;;;;5053075;28;20049;-71
2023/11/09 10:43:09;;;;;;;18.90;13.45;;;12.80;99.90;;;;;;5053022;28;20071;-71
2023/11/09 10:45:36;;;;;;;19.52;13.30;;;12.90;99.90;;;;;;5052849;28;20381;-71
2023/11/09 10:48:18;;;;;;;24.50;14.15;;;13.00;99.90;;;;;;5052725;28;20029;-71
2023/11/09 10:50:47;;;;;;;23.33;14.38;;;13.00;99.90;;;;;;5052673;28;20048;-71
2023/11/09 10:53:19;;;;;;;21.17;13.80;;;13.10;99.90;;;;;;5052495;28;20550;-71
2023/11/09 10:55:59;;;;;;;20.83;13.85;;;13.20;99.90;;;;;;5052721;28;20065;-71
2023/11/09 10:58:26;;;;;;;20.20;12.93;;;13.20;99.90;;;;;;5052669;28;20037;-71
2023/11/09 11:00:58;;;;;;;20.02;12.90;;;13.30;99.90;;;;;;5052683;28;20396;-71
2023/11/09 11:03:38;;;;;;;24.27;13.02;;;13.40;99.90;;;;;;5052498;28;20033;-71
2023/11/09 11:06:09;;;;;;;22.42;13.13;;;13.50;99.90;;;;;;5034832;28;20033;-72
2023/11/09 11:08:41;;;;;;;20.10;14.50;;;13.60;99.90;;;;;;5052605;28;20087;-71
2023/11/09 11:11:16;;;;;;;18.60;13.15;;;13.60;99.90;;;;;;5052491;28;20481;-71
2023/11/09 11:13:53;;;;;;;22.15;13.13;;;13.70;99.90;;;;;;5052589;28;20052;-71
2023/11/09 11:16:34;;;;;;;20.58;12.90;;;13.70;99.90;;;;;;5052338;28;20060;-71
2023/11/09 11:19:47;;;;;;;23.05;13.80;;;13.70;99.90;;;;;;5052636;28;20543;-71
2023/11/09 11:22:37;;;;;;;16.73;12.43;;;13.60;99.90;;;;;;4975885;28;20043;-72
2023/11/09 11:25:36;;;;;;;21.63;13.18;;;13.60;99.90;;;;;;5056730;28;20377;-71
2023/11/09 11:28:10;;;;;;;20.25;12.27;;;13.60;99.90;;;;;;5056658;28;20037;-71
2023/11/09 11:30:41;;;;;;;22.17;13.98;;;13.60;99.90;;;;;;5057908;28;20064;-71
2023/11/09 11:33:15;;;;;;;24.00;13.25;;;13.50;99.90;;;;;;5056932;28;20037;-71
2023/11/09 11:35:49;;;;;;;19.95;14.85;;;13.50;99.90;;;;;;5056505;28;20044;-71
2023/11/09 11:38:21;;;;;;;23.15;12.80;;;13.60;99.90;;;;;;5038756;28;20083;-71
2023/11/09 11:40:51;;;;;;;22.27;13.30;;;13.60;99.90;;;;;;5056273;28;20037;-71
2023/11/09 11:43:24;;;;;;;21.77;13.55;;;13.60;99.90;;;;;;5056217;28;20033;-71
2023/11/09 11:45:59;;;;;;;22.88;12.80;;;13.60;99.90;;;;;;5056237;28;20083;-71
2023/11/09 11:48:31;;;;;;;23.33;14.00;;;13.60;99.90;;;;;;5056273;28;20040;-70
2023/11/09 11:50:59;;;;;;;19.25;13.02;;;13.70;99.90;;;;;;5055970;28;20040;-71
2023/11/09 11:53:28;;;;;;;22.23;14.35;;;13.70;99.90;;;;;;5055591;28;20033;-71
2023/11/09 11:56:07;;;;;;;21.55;14.05;;;13.60;99.90;;;;;;5055940;28;20029;-73
2023/11/09 11:58:52;;;;;;;26.27;13.50;;;13.70;99.90;;;;;;5056371;28;20424;-78
2023/11/09 12:01:28;;;;;;;20.02;13.48;;;13.70;99.90;;;;;;5056792;28;20062;-73
2023/11/09 12:03:58;;;;;;;21.08;12.82;;;13.70;99.90;;;;;;5055672;28;20033;-73
2023/11/09 12:06:25;;;;;;;21.38;11.65;;;13.70;99.90;;;;;;5055620;28;20431;-73
2023/11/09 12:08:55;;;;;;;22.38;9.57;;;13.80;99.90;;;;;;5055536;28;20045;-73
2023/11/09 12:11:24;;;;;;;14.50;9.50;;;13.80;99.90;;;;;;5055333;28;20029;-73
2023/11/09 12:13:51;;;;;;;13.80;8.70;;;13.90;99.90;;;;;;5038029;28;20468;-73
2023/11/09 12:16:18;;;;;;;13.77;8.50;;;14.00;99.70;;;;;;5055064;28;20548;-73
2023/11/09 12:18:49;;;;;;;15.82;9.75;;;14.10;98.90;;;;;;5055087;28;20112;-73
2023/11/09 12:21:17;;;;;;;20.92;12.80;;;14.10;97.40;;;;;;5037296;28;20418;-73
2023/11/09 12:23:50;;;;;;;20.58;13.63;;;14.10;98.50;;;;;;5037313;28;20036;-73
2023/11/09 12:26:20;;;;;;;18.80;11.32;;;14.10;99.10;;;;;;5055039;28;20033;-73
2023/11/09 12:28:48;;;;;;;18.50;12.93;;;14.10;99.40;;;;;;5054950;28;20084;-73
2023/11/09 12:31:19;;;;;;;18.65;11.25;;;14.20;98.80;;;;;;5054597;28;20086;-73
2023/11/09 12:34:09;;;;;;;18.00;10.25;;;14.20;98.80;;;;;;5054892;28;20025;-74
2023/11/09 12:36:41;;;;;;;18.10;10.55;;;14.30;99.10;;;;;;5054857;28;20552;-73
2023/11/09 12:41:52;;;;;;;16.67;9.65;;;14.40;98.50;;;;;;5054768;28;20235;-73
2023/11/09 12:44:24;;;;;;;19.98;11.27;;;14.50;98.00;;;;;;5054911;28;20151;-73
2023/11/09 12:46:53;;;;;;;16.73;9.57;;;14.50;97.90;;;;;;5054816;28;20040;-73
2023/11/09 12:49:21;;;;;;;13.80;9.07;;;14.50;97.90;;;;;;5036582;28;20393;-73
2023/11/09 12:51:47;;;;;;;17.70;10.52;;;14.60;97.70;;;;;;5054476;28;20048;-73
2023/11/09 12:54:13;;;;;;;12.57;8.43;;;14.50;97.60;;;;;;5053801;28;20040;-73
2023/11/09 12:56:41;;;;;;;15.02;8.60;;;14.50;97.40;;;;;;5054040;28;20043;-73
2023/11/09 12:59:12;;;;;;;15.02;8.00;;;14.50;96.90;;;;;;5053835;28;20037;-72